sensor_id;sensor_type;location;lat;lon;timestamp;P1;P2;P0
69224;PMS1003;56333;51.306;17.056;2024-02-28T00:00:35;68.60;42.80;
69224;PMS1003;56333;51.306;17.056;2024-02-28T00:02:21;70.80;43.00;
69224;PMS1003;56333;51.306;17.056;2024-02-28T00:03:50;67.80;43.10;
69224;PMS1003;56333;51.306;17.056;2024-02-28T00:05:19;69.20;43.70;
69224;PMS1003;56333;51.306;17.056;2024-02-28T00:06:47;81.80;49.20;
69224;PMS1003;56333;51.306;17.056;2024-02-28T00:08:16;73.30;43.60;
69224;PMS1003;56333;51.306;17.056;2024-02-28T00:09:45;70.30;42.90;
69224;PMS1003;56333;51.306;17.056;2024-02-28T00:11:14;69.90;43.90;
69224;PMS1003;56333;51.306;17.056;2024-02-28T00:12:42;68.40;42.70;
69224;PMS1003;56333;51.306;17.056;2024-02-28T00:14:11;69.10;42.00;
69224;PMS1003;56333;51.306;17.056;2024-02-28T00:15:39;72.00;42.70;
69224;PMS1003;56333;51.306;17.056;2024-02-28T00:17:08;65.00;41.10;
69224;PMS1003;56333;51.306;17.056;2024-02-28T00:18:38;68.30;41.60;
69224;PMS1003;56333;51.306;17.056;2024-02-28T00:20:09;66.50;42.30;
69224;PMS1003;56333;51.306;17.056;2024-02-28T00:21:38;69.50;42.70;
69224;PMS1003;56333;51.306;17.056;2024-02-28T00:23:07;70.10;42.50;
69224;PMS1003;56333;51.306;17.056;2024-02-28T00:24:36;69.20;42.90;
69224;PMS1003;56333;51.306;17.056;2024-02-28T00:26:04;70.50;43.10;
69224;PMS1003;56333;51.306;17.056;2024-02-28T00:27:34;67.10;42.30;
69224;PMS1003;56333;51.306;17.056;2024-02-28T00:29:02;67.90;42.00;
69224;PMS1003;56333;51.306;17.056;2024-02-28T00:30:31;70.60;43.00;
69224;PMS1003;56333;51.306;17.056;2024-02-28T00:32:01;72.60;44.20;
69224;PMS1003;56333;51.306;17.056;2024-02-28T00:33:29;75.20;45.80;
69224;PMS1003;56333;51.306;17.056;2024-02-28T00:34:58;73.60;44.70;
69224;PMS1003;56333;51.306;17.056;2024-02-28T00:36:26;70.30;42.60;
69224;PMS1003;56333;51.306;17.056;2024-02-28T00:37:55;68.30;42.70;
69224;PMS1003;56333;51.306;17.056;2024-02-28T00:39:23;70.70;43.70;
69224;PMS1003;56333;51.306;17.056;2024-02-28T00:40:51;71.10;43.30;
69224;PMS1003;56333;51.306;17.056;2024-02-28T00:42:20;71.10;43.20;
69224;PMS1003;56333;51.306;17.056;2024-02-28T00:43:48;73.30;44.10;
69224;PMS1003;56333;51.306;17.056;2024-02-28T00:45:17;71.50;43.90;
69224;PMS1003;56333;51.306;17.056;2024-02-28T00:46:45;73.00;44.30;
69224;PMS1003;56333;51.306;17.056;2024-02-28T00:48:14;63.20;41.30;
69224;PMS1003;56333;51.306;17.056;2024-02-28T00:49:43;68.40;41.90;
69224;PMS1003;56333;51.306;17.056;2024-02-28T00:51:11;67.30;42.50;
69224;PMS1003;56333;51.306;17.056;2024-02-28T00:52:41;71.60;43.40;
69224;PMS1003;56333;51.306;17.056;2024-02-28T00:54:09;70.10;43.10;
69224;PMS1003;56333;51.306;17.056;2024-02-28T00:55:38;65.90;41.50;
69224;PMS1003;56333;51.306;17.056;2024-02-28T00:57:07;68.40;42.30;
69224;PMS1003;56333;51.306;17.056;2024-02-28T00:58:35;71.80;44.70;
69224;PMS1003;56333;51.306;17.056;2024-02-28T01:00:06;67.40;42.00;
69224;PMS1003;56333;51.306;17.056;2024-02-28T01:01:36;70.20;43.50;
69224;PMS1003;56333;51.306;17.056;2024-02-28T01:03:05;68.00;43.10;
69224;PMS1003;56333;51.306;17.056;2024-02-28T01:04:36;68.30;43.00;
69224;PMS1003;56333;51.306;17.056;2024-02-28T01:06:05;70.50;43.20;
69224;PMS1003;56333;51.306;17.056;2024-02-28T01:07:34;69.20;43.20;
69224;PMS1003;56333;51.306;17.056;2024-02-28T01:09:02;66.80;42.80;
69224;PMS1003;56333;51.306;17.056;2024-02-28T01:10:31;69.40;43.40;
69224;PMS1003;56333;51.306;17.056;2024-02-28T01:11:59;70.00;42.90;
69224;PMS1003;56333;51.306;17.056;2024-02-28T01:13:28;69.50;42.20;
69224;PMS1003;56333;51.306;17.056;2024-02-28T01:14:57;65.90;40.80;
69224;PMS1003;56333;51.306;17.056;2024-02-28T01:16:26;65.10;41.80;
69224;PMS1003;56333;51.306;17.056;2024-02-28T01:17:54;67.90;42.60;
69224;PMS1003;56333;51.306;17.056;2024-02-28T01:19:23;71.10;43.80;
69224;PMS1003;56333;51.306;17.056;2024-02-28T01:20:51;70.10;43.20;
69224;PMS1003;56333;51.306;17.056;2024-02-28T01:22:21;65.70;41.20;
69224;PMS1003;56333;51.306;17.056;2024-02-28T01:23:49;64.60;40.50;
69224;PMS1003;56333;51.306;17.056;2024-02-28T01:25:18;67.50;42.10;
69224;PMS1003;56333;51.306;17.056;2024-02-28T01:26:46;66.90;42.00;
69224;PMS1003;56333;51.306;17.056;2024-02-28T01:28:15;68.30;42.30;
69224;PMS1003;56333;51.306;17.056;2024-02-28T01:29:44;67.10;42.20;
69224;PMS1003;56333;51.306;17.056;2024-02-28T01:31:13;68.70;42.60;
69224;PMS1003;56333;51.306;17.056;2024-02-28T01:32:44;68.40;42.10;
69224;PMS1003;56333;51.306;17.056;2024-02-28T01:34:12;67.10;42.10;
69224;PMS1003;56333;51.306;17.056;2024-02-28T01:35:41;69.40;43.10;
69224;PMS1003;56333;51.306;17.056;2024-02-28T01:37:09;65.00;41.70;
69224;PMS1003;56333;51.306;17.056;2024-02-28T01:38:38;67.40;41.50;
69224;PMS1003;56333;51.306;17.056;2024-02-28T01:40:10;72.20;43.30;
69224;PMS1003;56333;51.306;17.056;2024-02-28T01:41:39;65.90;41.40;
69224;PMS1003;56333;51.306;17.056;2024-02-28T01:43:12;62.20;40.10;
69224;PMS1003;56333;51.306;17.056;2024-02-28T01:44:46;65.80;41.80;
69224;PMS1003;56333;51.306;17.056;2024-02-28T01:46:24;66.70;41.30;
69224;PMS1003;56333;51.306;17.056;2024-02-28T01:47:53;69.10;43.90;
69224;PMS1003;56333;51.306;17.056;2024-02-28T01:49:22;68.80;41.80;
69224;PMS1003;56333;51.306;17.056;2024-02-28T01:50:51;69.20;42.40;
69224;PMS1003;56333;51.306;17.056;2024-02-28T01:52:19;73.10;43.40;
69224;PMS1003;56333;51.306;17.056;2024-02-28T01:53:49;71.30;42.50;
69224;PMS1003;56333;51.306;17.056;2024-02-28T01:55:18;68.80;42.50;
69224;PMS1003;56333;51.306;17.056;2024-02-28T01:56:50;71.00;42.40;
69224;PMS1003;56333;51.306;17.056;2024-02-28T01:58:19;70.90;43.50;
69224;PMS1003;56333;51.306;17.056;2024-02-28T01:59:48;71.80;43.60;
69224;PMS1003;56333;51.306;17.056;2024-02-28T02:01:17;75.20;45.00;
69224;PMS1003;56333;51.306;17.056;2024-02-28T02:02:48;80.10;44.40;
69224;PMS1003;56333;51.306;17.056;2024-02-28T02:04:17;76.60;43.90;
69224;PMS1003;56333;51.306;17.056;2024-02-28T02:05:46;73.40;43.60;
69224;PMS1003;56333;51.306;17.056;2024-02-28T02:07:15;76.60;45.10;
69224;PMS1003;56333;51.306;17.056;2024-02-28T02:08:44;74.50;45.60;
69224;PMS1003;56333;51.306;17.056;2024-02-28T02:10:13;79.20;46.10;
69224;PMS1003;56333;51.306;17.056;2024-02-28T02:11:42;79.90;45.40;
69224;PMS1003;56333;51.306;17.056;2024-02-28T02:13:11;75.90;45.30;
69224;PMS1003;56333;51.306;17.056;2024-02-28T02:14:39;74.90;44.80;
69224;PMS1003;56333;51.306;17.056;2024-02-28T02:16:08;80.00;45.60;
69224;PMS1003;56333;51.306;17.056;2024-02-28T02:17:36;80.10;46.40;
69224;PMS1003;56333;51.306;17.056;2024-02-28T02:19:07;87.90;46.50;
69224;PMS1003;56333;51.306;17.056;2024-02-28T02:20:40;79.90;47.10;
69224;PMS1003;56333;51.306;17.056;2024-02-28T02:22:14;83.00;48.60;
69224;PMS1003;56333;51.306;17.056;2024-02-28T02:23:43;88.80;50.20;
69224;PMS1003;56333;51.306;17.056;2024-02-28T02:25:12;86.10;48.40;
69224;PMS1003;56333;51.306;17.056;2024-02-28T02:26:41;82.10;48.40;
69224;PMS1003;56333;51.306;17.056;2024-02-28T02:28:11;82.60;49.10;
69224;PMS1003;56333;51.306;17.056;2024-02-28T02:29:40;89.30;48.40;
69224;PMS1003;56333;51.306;17.056;2024-02-28T02:31:10;80.50;48.30;
69224;PMS1003;56333;51.306;17.056;2024-02-28T02:32:38;85.70;48.50;
69224;PMS1003;56333;51.306;17.056;2024-02-28T02:34:07;81.90;48.70;
69224;PMS1003;56333;51.306;17.056;2024-02-28T02:35:35;91.90;49.30;
69224;PMS1003;56333;51.306;17.056;2024-02-28T02:37:04;87.70;49.90;
69224;PMS1003;56333;51.306;17.056;2024-02-28T02:38:34;89.70;49.90;
69224;PMS1003;56333;51.306;17.056;2024-02-28T02:40:02;88.00;48.80;
69224;PMS1003;56333;51.306;17.056;2024-02-28T02:41:31;89.80;49.50;
69224;PMS1003;56333;51.306;17.056;2024-02-28T02:43:00;81.90;47.60;
69224;PMS1003;56333;51.306;17.056;2024-02-28T02:44:28;81.70;48.30;
69224;PMS1003;56333;51.306;17.056;2024-02-28T02:45:57;86.90;49.50;
69224;PMS1003;56333;51.306;17.056;2024-02-28T02:47:25;96.30;51.50;
69224;PMS1003;56333;51.306;17.056;2024-02-28T02:48:54;93.10;51.90;
69224;PMS1003;56333;51.306;17.056;2024-02-28T02:50:23;90.20;50.90;
69224;PMS1003;56333;51.306;17.056;2024-02-28T02:51:51;91.80;50.90;
69224;PMS1003;56333;51.306;17.056;2024-02-28T02:53:20;92.80;51.70;
69224;PMS1003;56333;51.306;17.056;2024-02-28T02:54:48;87.00;49.90;
69224;PMS1003;56333;51.306;17.056;2024-02-28T02:56:17;95.90;50.50;
69224;PMS1003;56333;51.306;17.056;2024-02-28T02:57:45;92.40;50.20;
69224;PMS1003;56333;51.306;17.056;2024-02-28T02:59:14;96.30;50.30;
69224;PMS1003;56333;51.306;17.056;2024-02-28T03:00:42;88.90;49.30;
69224;PMS1003;56333;51.306;17.056;2024-02-28T03:02:10;83.20;48.80;
69224;PMS1003;56333;51.306;17.056;2024-02-28T03:03:39;88.70;48.50;
69224;PMS1003;56333;51.306;17.056;2024-02-28T03:05:09;85.00;47.60;
69224;PMS1003;56333;51.306;17.056;2024-02-28T03:06:38;81.10;47.70;
69224;PMS1003;56333;51.306;17.056;2024-02-28T03:08:07;105.30;48.60;
69224;PMS1003;56333;51.306;17.056;2024-02-28T03:09:35;87.40;47.70;
69224;PMS1003;56333;51.306;17.056;2024-02-28T03:11:04;91.40;49.10;
69224;PMS1003;56333;51.306;17.056;2024-02-28T03:12:34;89.80;48.30;
69224;PMS1003;56333;51.306;17.056;2024-02-28T03:14:03;85.50;47.70;
69224;PMS1003;56333;51.306;17.056;2024-02-28T03:15:31;77.20;45.60;
69224;PMS1003;56333;51.306;17.056;2024-02-28T03:17:00;83.50;46.30;
69224;PMS1003;56333;51.306;17.056;2024-02-28T03:18:29;93.50;46.30;
69224;PMS1003;56333;51.306;17.056;2024-02-28T03:19:57;86.80;47.70;
69224;PMS1003;56333;51.306;17.056;2024-02-28T03:21:26;84.30;47.40;
69224;PMS1003;56333;51.306;17.056;2024-02-28T03:22:54;81.90;48.30;
69224;PMS1003;56333;51.306;17.056;2024-02-28T03:24:23;78.40;47.40;
69224;PMS1003;56333;51.306;17.056;2024-02-28T03:25:51;80.40;48.10;
69224;PMS1003;56333;51.306;17.056;2024-02-28T03:27:21;74.50;46.60;
69224;PMS1003;56333;51.306;17.056;2024-02-28T03:28:49;81.40;48.00;
69224;PMS1003;56333;51.306;17.056;2024-02-28T03:30:19;83.60;46.60;
69224;PMS1003;56333;51.306;17.056;2024-02-28T03:31:47;78.70;47.30;
69224;PMS1003;56333;51.306;17.056;2024-02-28T03:33:16;85.60;47.80;
69224;PMS1003;56333;51.306;17.056;2024-02-28T03:34:44;82.70;46.50;
69224;PMS1003;56333;51.306;17.056;2024-02-28T03:36:13;81.00;46.20;
69224;PMS1003;56333;51.306;17.056;2024-02-28T03:37:42;79.20;47.10;
69224;PMS1003;56333;51.306;17.056;2024-02-28T03:39:11;80.10;48.10;
69224;PMS1003;56333;51.306;17.056;2024-02-28T03:40:39;79.30;47.20;
69224;PMS1003;56333;51.306;17.056;2024-02-28T03:42:08;77.70;46.20;
69224;PMS1003;56333;51.306;17.056;2024-02-28T03:43:37;78.10;45.40;
69224;PMS1003;56333;51.306;17.056;2024-02-28T03:45:07;79.10;46.70;
69224;PMS1003;56333;51.306;17.056;2024-02-28T03:46:36;80.20;46.90;
69224;PMS1003;56333;51.306;17.056;2024-02-28T03:48:06;84.10;46.60;
69224;PMS1003;56333;51.306;17.056;2024-02-28T03:49:35;90.30;47.90;
69224;PMS1003;56333;51.306;17.056;2024-02-28T03:51:03;77.90;45.50;
69224;PMS1003;56333;51.306;17.056;2024-02-28T03:52:32;75.10;45.20;
69224;PMS1003;56333;51.306;17.056;2024-02-28T03:54:01;85.10;45.50;
69224;PMS1003;56333;51.306;17.056;2024-02-28T03:55:30;75.10;43.30;
69224;PMS1003;56333;51.306;17.056;2024-02-28T03:56:59;87.90;46.50;
69224;PMS1003;56333;51.306;17.056;2024-02-28T03:58:29;86.40;44.80;
69224;PMS1003;56333;51.306;17.056;2024-02-28T03:59:58;84.60;44.20;
69224;PMS1003;56333;51.306;17.056;2024-02-28T04:01:26;79.70;44.20;
69224;PMS1003;56333;51.306;17.056;2024-02-28T04:02:55;86.20;45.20;
69224;PMS1003;56333;51.306;17.056;2024-02-28T04:04:23;77.00;43.70;
69224;PMS1003;56333;51.306;17.056;2024-02-28T04:05:51;81.30;44.90;
69224;PMS1003;56333;51.306;17.056;2024-02-28T04:07:21;76.10;44.80;
69224;PMS1003;56333;51.306;17.056;2024-02-28T04:08:49;91.80;45.20;
69224;PMS1003;56333;51.306;17.056;2024-02-28T04:10:18;84.40;44.50;
69224;PMS1003;56333;51.306;17.056;2024-02-28T04:11:47;78.60;44.60;
69224;PMS1003;56333;51.306;17.056;2024-02-28T04:13:16;80.40;44.90;
69224;PMS1003;56333;51.306;17.056;2024-02-28T04:14:44;86.90;45.40;
69224;PMS1003;56333;51.306;17.056;2024-02-28T04:16:13;74.50;43.10;
69224;PMS1003;56333;51.306;17.056;2024-02-28T04:17:41;74.90;43.90;
69224;PMS1003;56333;51.306;17.056;2024-02-28T04:19:10;85.00;44.90;
69224;PMS1003;56333;51.306;17.056;2024-02-28T04:20:39;77.00;42.60;
69224;PMS1003;56333;51.306;17.056;2024-02-28T04:22:07;74.00;42.90;
69224;PMS1003;56333;51.306;17.056;2024-02-28T04:23:36;73.50;41.80;
69224;PMS1003;56333;51.306;17.056;2024-02-28T04:25:05;66.20;41.00;
69224;PMS1003;56333;51.306;17.056;2024-02-28T04:26:35;72.90;44.00;
69224;PMS1003;56333;51.306;17.056;2024-02-28T04:28:04;80.70;44.90;
69224;PMS1003;56333;51.306;17.056;2024-02-28T04:29:32;78.60;43.60;
69224;PMS1003;56333;51.306;17.056;2024-02-28T04:31:01;73.70;44.40;
69224;PMS1003;56333;51.306;17.056;2024-02-28T04:32:29;68.60;43.50;
69224;PMS1003;56333;51.306;17.056;2024-02-28T04:33:58;77.70;44.10;
69224;PMS1003;56333;51.306;17.056;2024-02-28T04:35:27;74.80;42.80;
69224;PMS1003;56333;51.306;17.056;2024-02-28T04:36:55;75.20;43.80;
69224;PMS1003;56333;51.306;17.056;2024-02-28T04:38:24;82.90;43.40;
69224;PMS1003;56333;51.306;17.056;2024-02-28T04:39:52;69.70;41.50;
69224;PMS1003;56333;51.306;17.056;2024-02-28T04:41:22;66.20;42.00;
69224;PMS1003;56333;51.306;17.056;2024-02-28T04:42:51;64.80;41.30;
69224;PMS1003;56333;51.306;17.056;2024-02-28T04:44:19;78.80;44.60;
69224;PMS1003;56333;51.306;17.056;2024-02-28T04:45:48;78.30;43.30;
69224;PMS1003;56333;51.306;17.056;2024-02-28T04:47:16;74.90;42.90;
69224;PMS1003;56333;51.306;17.056;2024-02-28T04:48:45;74.50;41.40;
69224;PMS1003;56333;51.306;17.056;2024-02-28T04:50:16;77.90;41.50;
69224;PMS1003;56333;51.306;17.056;2024-02-28T04:51:44;84.20;43.50;
69224;PMS1003;56333;51.306;17.056;2024-02-28T04:53:13;83.10;44.30;
69224;PMS1003;56333;51.306;17.056;2024-02-28T04:54:42;73.50;42.20;
69224;PMS1003;56333;51.306;17.056;2024-02-28T04:56:10;74.00;42.40;
69224;PMS1003;56333;51.306;17.056;2024-02-28T04:57:41;74.60;41.70;
69224;PMS1003;56333;51.306;17.056;2024-02-28T04:59:10;74.80;42.40;
69224;PMS1003;56333;51.306;17.056;2024-02-28T05:00:39;81.50;42.80;
69224;PMS1003;56333;51.306;17.056;2024-02-28T05:02:08;77.60;42.40;
69224;PMS1003;56333;51.306;17.056;2024-02-28T05:03:36;68.60;43.20;
69224;PMS1003;56333;51.306;17.056;2024-02-28T05:05:06;67.80;41.20;
69224;PMS1003;56333;51.306;17.056;2024-02-28T05:06:34;73.60;42.40;
69224;PMS1003;56333;51.306;17.056;2024-02-28T05:08:03;75.10;42.90;
69224;PMS1003;56333;51.306;17.056;2024-02-28T05:09:33;72.40;41.30;
69224;PMS1003;56333;51.306;17.056;2024-02-28T05:11:02;68.90;39.70;
69224;PMS1003;56333;51.306;17.056;2024-02-28T05:12:30;68.40;41.10;
69224;PMS1003;56333;51.306;17.056;2024-02-28T05:13:59;74.70;42.70;
69224;PMS1003;56333;51.306;17.056;2024-02-28T05:15:27;73.10;41.10;
69224;PMS1003;56333;51.306;17.056;2024-02-28T05:16:56;65.40;40.30;
69224;PMS1003;56333;51.306;17.056;2024-02-28T05:18:24;69.40;43.80;
69224;PMS1003;56333;51.306;17.056;2024-02-28T05:19:53;63.50;41.10;
69224;PMS1003;56333;51.306;17.056;2024-02-28T05:21:23;64.40;41.20;
69224;PMS1003;56333;51.306;17.056;2024-02-28T05:22:51;71.10;43.10;
69224;PMS1003;56333;51.306;17.056;2024-02-28T05:24:21;65.90;41.50;
69224;PMS1003;56333;51.306;17.056;2024-02-28T05:25:50;66.70;41.90;
69224;PMS1003;56333;51.306;17.056;2024-02-28T05:27:18;67.30;41.70;
69224;PMS1003;56333;51.306;17.056;2024-02-28T05:28:47;67.90;42.70;
69224;PMS1003;56333;51.306;17.056;2024-02-28T05:30:16;57.80;39.40;
69224;PMS1003;56333;51.306;17.056;2024-02-28T05:31:45;59.00;40.00;
69224;PMS1003;56333;51.306;17.056;2024-02-28T05:33:14;61.60;40.90;
69224;PMS1003;56333;51.306;17.056;2024-02-28T05:34:44;64.10;40.20;
69224;PMS1003;56333;51.306;17.056;2024-02-28T05:36:12;61.50;40.80;
69224;PMS1003;56333;51.306;17.056;2024-02-28T05:37:41;61.60;39.60;
69224;PMS1003;56333;51.306;17.056;2024-02-28T05:39:11;63.10;39.00;
69224;PMS1003;56333;51.306;17.056;2024-02-28T05:40:40;58.20;39.10;
69224;PMS1003;56333;51.306;17.056;2024-02-28T05:42:09;61.80;40.10;
69224;PMS1003;56333;51.306;17.056;2024-02-28T05:43:39;62.70;39.20;
69224;PMS1003;56333;51.306;17.056;2024-02-28T05:45:10;68.00;39.60;
69224;PMS1003;56333;51.306;17.056;2024-02-28T05:46:39;65.30;39.70;
69224;PMS1003;56333;51.306;17.056;2024-02-28T05:48:09;72.70;40.50;
69224;PMS1003;56333;51.306;17.056;2024-02-28T05:49:38;68.00;38.90;
69224;PMS1003;56333;51.306;17.056;2024-02-28T05:51:06;60.20;39.40;
69224;PMS1003;56333;51.306;17.056;2024-02-28T05:52:35;67.00;38.80;
69224;PMS1003;56333;51.306;17.056;2024-02-28T05:54:04;57.90;36.80;
69224;PMS1003;56333;51.306;17.056;2024-02-28T05:55:32;65.00;38.50;
69224;PMS1003;56333;51.306;17.056;2024-02-28T05:57:01;69.60;37.70;
69224;PMS1003;56333;51.306;17.056;2024-02-28T05:58:30;60.10;37.50;
69224;PMS1003;56333;51.306;17.056;2024-02-28T05:59:58;62.70;38.60;
69224;PMS1003;56333;51.306;17.056;2024-02-28T06:01:37;64.70;36.30;
69224;PMS1003;56333;51.306;17.056;2024-02-28T06:03:07;60.40;37.40;
69224;PMS1003;56333;51.306;17.056;2024-02-28T06:04:35;66.80;36.10;
69224;PMS1003;56333;51.306;17.056;2024-02-28T06:06:05;66.20;36.60;
69224;PMS1003;56333;51.306;17.056;2024-02-28T06:07:33;58.20;36.70;
69224;PMS1003;56333;51.306;17.056;2024-02-28T06:09:02;55.20;37.80;
69224;PMS1003;56333;51.306;17.056;2024-02-28T06:10:31;58.70;36.70;
69224;PMS1003;56333;51.306;17.056;2024-02-28T06:12:00;57.30;36.60;
69224;PMS1003;56333;51.306;17.056;2024-02-28T06:13:29;56.20;36.30;
69224;PMS1003;56333;51.306;17.056;2024-02-28T06:14:58;53.30;35.20;
69224;PMS1003;56333;51.306;17.056;2024-02-28T06:16:26;51.40;34.70;
69224;PMS1003;56333;51.306;17.056;2024-02-28T06:17:57;48.90;33.20;
69224;PMS1003;56333;51.306;17.056;2024-02-28T06:19:26;52.40;33.90;
69224;PMS1003;56333;51.306;17.056;2024-02-28T06:20:55;47.80;32.40;
69224;PMS1003;56333;51.306;17.056;2024-02-28T06:22:24;44.40;32.20;
69224;PMS1003;56333;51.306;17.056;2024-02-28T06:23:53;47.70;32.30;
69224;PMS1003;56333;51.306;17.056;2024-02-28T06:25:22;42.00;30.90;
69224;PMS1003;56333;51.306;17.056;2024-02-28T06:26:53;44.10;31.60;
69224;PMS1003;56333;51.306;17.056;2024-02-28T06:28:22;42.60;30.70;
69224;PMS1003;56333;51.306;17.056;2024-02-28T06:29:50;39.20;29.70;
69224;PMS1003;56333;51.306;17.056;2024-02-28T06:31:19;42.20;30.30;
69224;PMS1003;56333;51.306;17.056;2024-02-28T06:32:48;38.30;28.50;
69224;PMS1003;56333;51.306;17.056;2024-02-28T06:34:16;38.20;28.70;
69224;PMS1003;56333;51.306;17.056;2024-02-28T06:35:44;38.10;28.20;
69224;PMS1003;56333;51.306;17.056;2024-02-28T06:37:14;37.60;28.20;
69224;PMS1003;56333;51.306;17.056;2024-02-28T06:38:43;36.80;27.90;
69224;PMS1003;56333;51.306;17.056;2024-02-28T06:40:13;35.70;26.80;
69224;PMS1003;56333;51.306;17.056;2024-02-28T06:41:41;37.80;27.00;
69224;PMS1003;56333;51.306;17.056;2024-02-28T06:43:09;37.90;26.90;
69224;PMS1003;56333;51.306;17.056;2024-02-28T06:44:38;36.90;27.60;
69224;PMS1003;56333;51.306;17.056;2024-02-28T06:46:07;33.90;26.60;
69224;PMS1003;56333;51.306;17.056;2024-02-28T06:47:36;37.40;27.60;
69224;PMS1003;56333;51.306;17.056;2024-02-28T06:49:05;36.40;27.70;
69224;PMS1003;56333;51.306;17.056;2024-02-28T06:50:34;40.40;30.80;
69224;PMS1003;56333;51.306;17.056;2024-02-28T06:52:03;35.80;27.90;
69224;PMS1003;56333;51.306;17.056;2024-02-28T06:53:32;36.00;28.30;
69224;PMS1003;56333;51.306;17.056;2024-02-28T06:55:01;35.60;27.50;
69224;PMS1003;56333;51.306;17.056;2024-02-28T06:56:35;33.40;26.70;
69224;PMS1003;56333;51.306;17.056;2024-02-28T06:58:04;33.20;25.90;
69224;PMS1003;56333;51.306;17.056;2024-02-28T06:59:33;33.60;26.00;
69224;PMS1003;56333;51.306;17.056;2024-02-28T07:01:01;32.60;25.20;
69224;PMS1003;56333;51.306;17.056;2024-02-28T07:02:30;32.40;25.40;
69224;PMS1003;56333;51.306;17.056;2024-02-28T07:03:59;32.50;25.90;
69224;PMS1003;56333;51.306;17.056;2024-02-28T07:05:27;34.40;26.70;
69224;PMS1003;56333;51.306;17.056;2024-02-28T07:06:56;31.90;25.30;
69224;PMS1003;56333;51.306;17.056;2024-02-28T07:08:24;32.70;26.10;
69224;PMS1003;56333;51.306;17.056;2024-02-28T07:09:53;31.40;24.40;
69224;PMS1003;56333;51.306;17.056;2024-02-28T07:11:21;32.80;26.50;
69224;PMS1003;56333;51.306;17.056;2024-02-28T07:12:50;32.30;25.40;
69224;PMS1003;56333;51.306;17.056;2024-02-28T07:14:19;33.90;26.00;
69224;PMS1003;56333;51.306;17.056;2024-02-28T07:15:48;32.40;25.20;
69224;PMS1003;56333;51.306;17.056;2024-02-28T07:17:16;33.10;25.90;
69224;PMS1003;56333;51.306;17.056;2024-02-28T07:18:45;32.20;24.20;
69224;PMS1003;56333;51.306;17.056;2024-02-28T07:20:14;33.00;23.90;
69224;PMS1003;56333;51.306;17.056;2024-02-28T07:21:43;29.30;23.00;
69224;PMS1003;56333;51.306;17.056;2024-02-28T07:23:12;29.30;22.80;
69224;PMS1003;56333;51.306;17.056;2024-02-28T07:24:41;26.80;21.50;
69224;PMS1003;56333;51.306;17.056;2024-02-28T07:26:13;29.70;22.60;
69224;PMS1003;56333;51.306;17.056;2024-02-28T07:27:42;29.00;22.40;
69224;PMS1003;56333;51.306;17.056;2024-02-28T07:29:11;32.40;25.50;
69224;PMS1003;56333;51.306;17.056;2024-02-28T07:30:39;30.10;22.60;
69224;PMS1003;56333;51.306;17.056;2024-02-28T07:32:09;31.00;23.70;
69224;PMS1003;56333;51.306;17.056;2024-02-28T07:33:38;29.40;22.60;
69224;PMS1003;56333;51.306;17.056;2024-02-28T07:35:12;31.20;23.60;
69224;PMS1003;56333;51.306;17.056;2024-02-28T07:36:40;28.00;22.10;
69224;PMS1003;56333;51.306;17.056;2024-02-28T07:38:09;34.00;23.10;
69224;PMS1003;56333;51.306;17.056;2024-02-28T07:39:37;35.60;29.30;
69224;PMS1003;56333;51.306;17.056;2024-02-28T07:41:06;30.10;24.50;
69224;PMS1003;56333;51.306;17.056;2024-02-28T07:42:34;30.00;22.80;
69224;PMS1003;56333;51.306;17.056;2024-02-28T07:44:03;28.70;22.30;
69224;PMS1003;56333;51.306;17.056;2024-02-28T07:45:32;35.30;27.80;
69224;PMS1003;56333;51.306;17.056;2024-02-28T07:47:01;29.90;23.50;
69224;PMS1003;56333;51.306;17.056;2024-02-28T07:48:30;30.20;22.90;
69224;PMS1003;56333;51.306;17.056;2024-02-28T07:49:59;29.40;21.20;
69224;PMS1003;56333;51.306;17.056;2024-02-28T07:51:27;29.30;23.10;
69224;PMS1003;56333;51.306;17.056;2024-02-28T07:52:58;32.30;21.70;
69224;PMS1003;56333;51.306;17.056;2024-02-28T07:54:26;28.40;21.50;
69224;PMS1003;56333;51.306;17.056;2024-02-28T07:55:55;24.60;19.70;
69224;PMS1003;56333;51.306;17.056;2024-02-28T07:57:24;25.80;20.10;
69224;PMS1003;56333;51.306;17.056;2024-02-28T07:58:52;27.40;20.80;
69224;PMS1003;56333;51.306;17.056;2024-02-28T08:00:22;24.50;18.70;
69224;PMS1003;56333;51.306;17.056;2024-02-28T08:01:51;24.70;18.80;
69224;PMS1003;56333;51.306;17.056;2024-02-28T08:03:19;23.60;18.50;
69224;PMS1003;56333;51.306;17.056;2024-02-28T08:04:48;22.90;18.80;
69224;PMS1003;56333;51.306;17.056;2024-02-28T08:06:17;24.00;18.20;
69224;PMS1003;56333;51.306;17.056;2024-02-28T08:07:45;23.60;18.00;
69224;PMS1003;56333;51.306;17.056;2024-02-28T08:09:14;23.70;17.30;
69224;PMS1003;56333;51.306;17.056;2024-02-28T08:10:43;24.20;17.70;
69224;PMS1003;56333;51.306;17.056;2024-02-28T08:12:14;21.60;16.20;
69224;PMS1003;56333;51.306;17.056;2024-02-28T08:13:43;22.20;16.60;
69224;PMS1003;56333;51.306;17.056;2024-02-28T08:15:13;20.40;16.30;
69224;PMS1003;56333;51.306;17.056;2024-02-28T08:16:41;20.00;15.80;
69224;PMS1003;56333;51.306;17.056;2024-02-28T08:18:10;19.40;14.50;
69224;PMS1003;56333;51.306;17.056;2024-02-28T08:19:38;19.00;14.10;
69224;PMS1003;56333;51.306;17.056;2024-02-28T08:21:09;19.10;13.90;
69224;PMS1003;56333;51.306;17.056;2024-02-28T08:22:38;18.90;14.90;
69224;PMS1003;56333;51.306;17.056;2024-02-28T08:24:07;19.20;15.00;
69224;PMS1003;56333;51.306;17.056;2024-02-28T08:25:36;18.50;14.60;
69224;PMS1003;56333;51.306;17.056;2024-02-28T08:27:05;20.70;14.70;
69224;PMS1003;56333;51.306;17.056;2024-02-28T08:28:33;20.60;15.00;
69224;PMS1003;56333;51.306;17.056;2024-02-28T08:30:01;20.40;14.90;
69224;PMS1003;56333;51.306;17.056;2024-02-28T08:31:31;20.10;15.30;
69224;PMS1003;56333;51.306;17.056;2024-02-28T08:33:00;21.20;16.10;
69224;PMS1003;56333;51.306;17.056;2024-02-28T08:34:28;20.30;16.00;
69224;PMS1003;56333;51.306;17.056;2024-02-28T08:35:57;19.70;15.50;
69224;PMS1003;56333;51.306;17.056;2024-02-28T08:37:25;20.70;15.10;
69224;PMS1003;56333;51.306;17.056;2024-02-28T08:38:56;19.80;14.70;
69224;PMS1003;56333;51.306;17.056;2024-02-28T08:40:24;18.80;14.60;
69224;PMS1003;56333;51.306;17.056;2024-02-28T08:41:53;18.90;14.70;
69224;PMS1003;56333;51.306;17.056;2024-02-28T08:43:21;18.70;14.60;
69224;PMS1003;56333;51.306;17.056;2024-02-28T08:44:49;17.30;13.70;
69224;PMS1003;56333;51.306;17.056;2024-02-28T08:46:18;18.60;14.20;
69224;PMS1003;56333;51.306;17.056;2024-02-28T08:47:47;19.50;14.90;
69224;PMS1003;56333;51.306;17.056;2024-02-28T08:49:16;20.00;15.20;